Time;durP1;ratioP1;P1;durP2;ratioP2;P2;SDS_P1;SDS_P2;PMS_P1;PMS_P2;Temp;Humidity;BMP_temperature;BMP_pressure;BME280_temperature;BME280_humidity;BME280_pressure;Samples;Min_cycle;Max_cycle;Signal;HPM_P1;HPM_P2
2022/09/03 00:00:34;;;;;;;;;;;18.40;99.90;;;;;;5082180;28;19932;-55
2022/09/03 00:03:04;;;;;;;;;;;18.40;99.90;;;;;;5075640;28;20291;-55
2022/09/03 00:05:33;;;;;;;;;;;18.40;99.90;;;;;;5072140;28;19925;-57
2022/09/03 00:08:21;;;;;;;;;;;18.40;99.90;;;;;;5078019;28;19928;-55
2022/09/03 00:11:00;;;;;;;;;;;18.40;99.90;;;;;;5086936;28;19925;-55
2022/09/03 00:13:32;;;;;;;;;;;18.40;99.90;;;;;;5090773;28;19925;-55
2022/09/03 00:16:00;;;;;;;;;;;18.30;99.90;;;;;;5090890;28;19924;-54
2022/09/03 00:18:33;;;;;;;;;;;18.30;99.90;;;;;;5091635;28;19928;-55
2022/09/03 00:21:09;;;;;;;;;;;18.30;99.90;;;;;;5089552;28;20387;-54
2022/09/03 00:23:39;;;;;;;;;;;18.30;99.90;;;;;;5094438;28;20385;-54
2022/09/03 00:26:12;;;;;;;;;;;18.30;99.90;;;;;;5112447;28;19968;-55
2022/09/03 00:28:42;;;;;;;;;;;18.30;99.90;;;;;;5090971;28;19931;-54
2022/09/03 00:31:26;;;;;;;;;;;18.30;99.90;;;;;;5079062;28;19931;-54
2022/09/03 00:33:57;;;;;;;;;;;18.30;99.90;;;;;;5090403;28;20383;-54
2022/09/03 00:36:30;;;;;;;;;;;18.30;99.90;;;;;;5085744;28;20298;-54
2022/09/03 00:38:58;;;;;;;;;;;18.30;99.90;;;;;;5083852;28;20344;-57
2022/09/03 00:41:30;;;;;;;;;;;18.30;99.90;;;;;;5071131;28;19931;-56
2022/09/03 00:44:07;;;;;;;;;;;18.30;99.90;;;;;;5088082;28;19924;-57
2022/09/03 00:46:40;;;;;;;;;;;18.30;99.90;;;;;;5070157;28;19932;-57
2022/09/03 00:49:11;;;;;;;;;;;18.30;99.90;;;;;;5085970;28;19924;-57
2022/09/03 00:52:04;;;;;;;;;;;18.30;99.90;;;;;;5074986;28;19928;-59
2022/09/03 00:54:39;;;;;;;;;;;18.30;99.90;;;;;;5069656;28;19924;-58
2022/09/03 00:57:13;;;;;;;;;;;18.20;99.90;;;;;;5074561;28;19924;-57
2022/09/03 01:00:01;;;;;;;;;;;18.20;99.90;;;;;;5090258;28;19924;-57
2022/09/03 01:02:32;;;;;;;;;;;18.20;99.90;;;;;;5068636;28;19935;-55
2022/09/03 01:05:10;;;;;;;;;;;18.20;99.90;;;;;;5097300;28;19939;-57
2022/09/03 01:07:48;;;;;;;;;;;18.20;99.90;;;;;;5072050;28;20279;-57
2022/09/03 01:10:23;;;;;;;;;;;18.20;99.90;;;;;;5071390;28;19943;-55
2022/09/03 01:12:51;;;;;;;;;;;18.20;99.90;;;;;;5074099;28;19925;-55
2022/09/03 01:15:26;;;;;;;;;;;18.20;99.90;;;;;;5089176;28;19935;-58
2022/09/03 01:18:16;;;;;;;;;;;18.20;99.90;;;;;;5095150;28;19931;-55
2022/09/03 01:20:48;;;;;;;;;;;18.20;99.90;;;;;;5111341;28;19924;-55
2022/09/03 01:23:34;;;;;;;;;;;18.20;99.90;;;;;;5088404;28;20397;-57
2022/09/03 01:26:06;;;;;;;;;;;18.20;99.90;;;;;;5075515;28;20401;-57
2022/09/03 01:28:54;;;;;;;;;;;18.10;99.90;;;;;;5072211;28;19932;-56
2022/09/03 01:31:41;;;;;;;;;;;18.10;99.90;;;;;;5075791;28;19931;-57
2022/09/03 01:34:16;;;;;;;;;;;18.10;99.90;;;;;;5073694;28;19924;-54
2022/09/03 01:37:02;;;;;;;;;;;18.10;99.90;;;;;;5074190;28;20291;-54
2022/09/03 01:39:45;;;;;;;;;;;18.10;99.90;;;;;;5089244;28;19924;-57
2022/09/03 01:42:20;;;;;;;;;;;18.10;99.90;;;;;;5091355;28;19924;-55
2022/09/03 01:45:06;;;;;;;;;;;18.10;99.90;;;;;;5073496;28;20283;-57
2022/09/03 01:47:40;;;;;;;;;;;18.10;99.90;;;;;;5072847;28;19924;-55
2022/09/03 01:50:08;;;;;;;;;;;18.10;99.90;;;;;;5073378;28;19932;-54
2022/09/03 01:52:42;;;;;;;;;;;18.10;99.90;;;;;;5073469;28;19932;-54
2022/09/03 01:55:28;;;;;;;;;;;18.10;99.90;;;;;;5094338;28;19932;-54
2022/09/03 01:57:57;;;;;;;;;;;18.10;99.90;;;;;;5072891;28;19947;-56
2022/09/03 02:00:26;;;;;;;;;;;18.10;99.90;;;;;;5083287;28;19924;-55
2022/09/03 02:02:54;;;;;;;;;;;18.00;99.90;;;;;;5093454;28;20303;-56
2022/09/03 02:05:23;;;;;;;;;;;18.00;99.90;;;;;;5093224;28;19928;-55
2022/09/03 02:07:53;;;;;;;;;;;18.00;99.90;;;;;;5093335;28;19943;-57
2022/09/03 02:10:26;;;;;;;;;;;18.00;99.90;;;;;;5089827;28;19924;-55
2022/09/03 02:13:00;;;;;;;;;;;18.00;99.90;;;;;;5079937;28;19924;-57
2022/09/03 02:15:29;;;;;;;;;;;18.00;99.90;;;;;;5082046;28;19928;-54
2022/09/03 02:17:59;;;;;;;;;;;18.00;99.90;;;;;;5072517;28;19935;-57
2022/09/03 02:20:28;;;;;;;;;;;18.00;99.90;;;;;;5072820;28;19928;-54
2022/09/03 02:22:56;;;;;;;;;;;18.00;99.90;;;;;;5073492;28;19925;-54
2022/09/03 02:25:28;;;;;;;;;;;17.90;99.90;;;;;;5098203;28;19959;-53
2022/09/03 02:27:56;;;;;;;;;;;17.90;99.90;;;;;;5093069;28;19931;-55
2022/09/03 02:30:23;;;;;;;;;;;17.90;99.90;;;;;;5092986;28;19924;-56
2022/09/03 02:32:51;;;;;;;;;;;17.90;99.90;;;;;;5092726;28;19924;-57
2022/09/03 02:35:18;;;;;;;;;;;17.90;99.90;;;;;;5092841;28;19924;-56
2022/09/03 02:37:46;;;;;;;;;;;17.80;99.90;;;;;;5092924;28;19931;-58
2022/09/03 02:40:13;;;;;;;;;;;17.80;99.90;;;;;;5092806;28;19924;-57
2022/09/03 02:42:40;;;;;;;;;;;17.80;99.90;;;;;;5092889;28;19924;-61
2022/09/03 02:45:11;;;;;;;;;;;17.70;99.90;;;;;;5092217;28;19935;-56
2022/09/03 02:47:40;;;;;;;;;;;17.60;99.90;;;;;;5093004;28;19924;-54
2022/09/03 02:50:08;;;;;;;;;;;17.60;99.90;;;;;;5092501;28;19931;-54
2022/09/03 02:52:35;;;;;;;;;;;17.60;99.90;;;;;;5092638;28;20315;-54
2022/09/03 02:55:02;;;;;;;;;;;17.50;99.90;;;;;;5110526;28;19924;-55
2022/09/03 02:57:30;;;;;;;;;;;17.40;99.90;;;;;;5112780;28;20276;-54
2022/09/03 02:59:57;;;;;;;;;;;17.40;99.90;;;;;;5104074;28;19939;-55
2022/09/03 03:02:25;;;;;;;;;;;17.40;99.90;;;;;;5072290;28;19924;-54
2022/09/03 03:04:54;;;;;;;;;;;17.30;99.90;;;;;;5072343;28;19924;-54
2022/09/03 03:07:21;;;;;;;;;;;17.20;99.90;;;;;;5072245;28;19924;-56
2022/09/03 03:09:49;;;;;;;;;;;17.20;99.90;;;;;;5071619;28;19924;-57
2022/09/03 03:12:16;;;;;;;;;;;17.20;99.90;;;;;;5072006;28;19932;-57
2022/09/03 03:14:43;;;;;;;;;;;17.20;99.90;;;;;;5070697;28;19925;-57
2022/09/03 03:17:11;;;;;;;;;;;17.10;99.90;;;;;;5072036;28;19932;-57
2022/09/03 03:19:38;;;;;;;;;;;17.00;99.90;;;;;;5072169;28;19928;-57
2022/09/03 03:22:06;;;;;;;;;;;17.00;99.90;;;;;;5072001;28;20021;-57
2022/09/03 03:24:33;;;;;;;;;;;17.00;99.90;;;;;;5085735;28;19924;-55
2022/09/03 03:27:05;;;;;;;;;;;17.00;99.90;;;;;;5092033;28;19931;-56
2022/09/03 03:29:32;;;;;;;;;;;16.90;99.90;;;;;;5092134;28;19924;-55
2022/09/03 03:32:00;;;;;;;;;;;16.90;99.90;;;;;;5092126;28;19931;-57
2022/09/03 03:34:27;;;;;;;;;;;16.80;99.90;;;;;;5090677;28;19932;-56
2022/09/03 03:36:55;;;;;;;;;;;16.80;99.90;;;;;;5091819;28;19924;-56
2022/09/03 03:39:22;;;;;;;;;;;16.80;99.90;;;;;;5091994;28;19932;-56
2022/09/03 03:41:51;;;;;;;;;;;16.80;99.90;;;;;;5090827;28;19931;-54
2022/09/03 03:44:19;;;;;;;;;;;16.70;99.90;;;;;;5091556;28;20387;-56
2022/09/03 03:46:46;;;;;;;;;;;16.80;99.90;;;;;;5092017;28;19924;-57
2022/09/03 03:49:13;;;;;;;;;;;16.70;99.90;;;;;;5090497;28;19931;-56
2022/09/03 03:51:41;;;;;;;;;;;16.70;99.90;;;;;;5091834;28;19955;-56
2022/09/03 03:54:08;;;;;;;;;;;16.70;99.90;;;;;;5102412;28;19928;-57
2022/09/03 03:56:36;;;;;;;;;;;16.60;99.90;;;;;;5112098;28;19924;-57
2022/09/03 03:59:03;;;;;;;;;;;16.60;99.90;;;;;;5112033;28;19924;-57
2022/09/03 04:01:30;;;;;;;;;;;16.60;99.90;;;;;;5112165;28;19946;-57
2022/09/03 04:03:59;;;;;;;;;;;16.60;99.90;;;;;;5112119;28;20398;-56
2022/09/03 04:06:26;;;;;;;;;;;16.60;99.90;;;;;;5110808;28;19930;-57
2022/09/03 04:08:54;;;;;;;;;;;16.70;99.90;;;;;;5112068;28;19923;-56
2022/09/03 04:11:22;;;;;;;;;;;16.70;99.90;;;;;;5112103;28;20294;-57
2022/09/03 04:13:50;;;;;;;;;;;16.70;99.90;;;;;;5111986;28;19924;-55
2022/09/03 04:16:19;;;;;;;;;;;16.80;99.90;;;;;;5112010;28;20128;-57
2022/09/03 04:18:48;;;;;;;;;;;16.70;99.90;;;;;;5111876;28;19931;-57
2022/09/03 04:21:23;;;;;;;;;;;16.80;99.90;;;;;;5115571;28;20367;-57
2022/09/03 04:24:03;;;;;;;;;;;16.80;99.90;;;;;;5115673;28;19923;-57
2022/09/03 04:26:31;;;;;;;;;;;16.80;99.90;;;;;;5114424;28;20405;-57
2022/09/03 04:29:02;;;;;;;;;;;16.80;99.90;;;;;;5115762;28;19928;-56
2022/09/03 04:31:30;;;;;;;;;;;16.80;99.90;;;;;;5115645;28;20399;-55
2022/09/03 04:33:58;;;;;;;;;;;16.80;99.90;;;;;;5115467;28;20077;-55
2022/09/03 04:36:27;;;;;;;;;;;16.80;99.90;;;;;;5115507;28;19924;-54
2022/09/03 04:38:54;;;;;;;;;;;16.80;99.90;;;;;;5115459;28;19924;-56
2022/09/03 04:41:26;;;;;;;;;;;16.80;99.90;;;;;;5115491;28;19931;-57
2022/09/03 04:43:54;;;;;;;;;;;16.80;99.90;;;;;;5106061;28;19931;-54
2022/09/03 04:46:25;;;;;;;;;;;16.70;99.90;;;;;;5095021;28;19930;-54
2022/09/03 04:48:53;;;;;;;;;;;16.70;99.90;;;;;;5073888;28;20399;-54
2022/09/03 04:51:22;;;;;;;;;;;16.70;99.90;;;;;;5071181;28;19924;-55
2022/09/03 04:53:56;;;;;;;;;;;16.70;99.90;;;;;;5086861;28;19930;-56
2022/09/03 04:56:25;;;;;;;;;;;16.70;99.90;;;;;;5111695;28;20303;-57
2022/09/03 04:58:53;;;;;;;;;;;16.70;99.90;;;;;;5100935;28;20450;-57
2022/09/03 05:01:22;;;;;;;;;;;16.70;99.90;;;;;;5071551;28;19936;-55
2022/09/03 05:03:51;;;;;;;;;;;16.70;99.90;;;;;;5078234;28;20386;-55
2022/09/03 05:06:19;;;;;;;;;;;16.60;99.90;;;;;;5065400;28;20426;-54
2022/09/03 05:08:47;;;;;;;;;;;16.60;99.90;;;;;;5069970;28;19924;-54
2022/09/03 05:11:16;;;;;;;;;;;16.60;99.90;;;;;;5067344;28;19947;-57
2022/09/03 05:13:48;;;;;;;;;;;16.60;99.90;;;;;;5090244;28;20290;-56
2022/09/03 05:16:15;;;;;;;;;;;16.60;99.90;;;;;;5089852;28;19924;-55
2022/09/03 05:18:43;;;;;;;;;;;16.50;99.90;;;;;;5075667;28;19924;-57
2022/09/03 05:21:12;;;;;;;;;;;16.50;99.90;;;;;;5068029;28;19928;-57
2022/09/03 05:23:41;;;;;;;;;;;16.50;99.90;;;;;;5096770;28;19924;-54
2022/09/03 05:26:10;;;;;;;;;;;16.50;99.90;;;;;;5111484;28;19935;-55
2022/09/03 05:28:39;;;;;;;;;;;16.50;99.90;;;;;;5097182;28;19931;-57
2022/09/03 05:31:10;;;;;;;;;;;16.40;99.90;;;;;;5090422;28;19924;-55
2022/09/03 05:33:39;;;;;;;;;;;16.40;99.90;;;;;;5080673;28;19931;-57
2022/09/03 05:36:08;;;;;;;;;;;16.40;99.90;;;;;;5070632;28;20299;-58
2022/09/03 05:38:36;;;;;;;;;;;16.30;99.90;;;;;;5097569;28;20497;-57
2022/09/03 05:41:08;;;;;;;;;;;16.30;99.90;;;;;;5079419;28;19951;-56
2022/09/03 05:43:35;;;;;;;;;;;16.30;99.90;;;;;;5093877;28;19932;-56
2022/09/03 05:46:04;;;;;;;;;;;16.30;99.90;;;;;;5070259;28;19925;-56
2022/09/03 05:48:33;;;;;;;;;;;16.30;99.90;;;;;;5078263;28;19931;-54
2022/09/03 05:51:02;;;;;;;;;;;16.30;99.90;;;;;;5070403;28;19924;-55
2022/09/03 05:53:31;;;;;;;;;;;16.30;99.90;;;;;;5089388;28;19950;-55
2022/09/03 05:56:03;;;;;;;;;;;16.30;99.90;;;;;;5078732;28;19929;-56
2022/09/03 05:58:34;;;;;;;;;;;16.30;99.90;;;;;;5082161;28;19924;-56
2022/09/03 06:01:11;;;;;;;;;;;16.30;99.90;;;;;;5088737;28;19931;-57
2022/09/03 06:03:40;;;;;;;;;;;16.30;99.90;;;;;;5084635;28;19931;-56
2022/09/03 06:06:08;;;;;;;;;;;16.40;99.90;;;;;;5087585;28;19924;-56
2022/09/03 06:08:39;;;;;;;;;;;16.40;99.90;;;;;;5086235;28;19924;-57
2022/09/03 06:11:08;;;;;;;;;;;16.40;99.90;;;;;;5080227;28;19925;-54
2022/09/03 06:13:35;;;;;;;;;;;16.40;99.90;;;;;;5083642;28;19924;-57
2022/09/03 06:16:04;;;;;;;;;;;16.40;99.90;;;;;;5072618;28;19939;-57
2022/09/03 06:18:32;;;;;;;;;;;16.50;99.90;;;;;;5081561;28;20413;-54
2022/09/03 06:21:03;;;;;;;;;;;16.50;99.90;;;;;;5074558;28;19935;-55
2022/09/03 06:23:31;;;;;;;;;;;16.50;99.90;;;;;;5097707;28;20411;-57
2022/09/03 06:26:00;;;;;;;;;;;16.50;99.90;;;;;;5069326;28;19928;-56
2022/09/03 06:28:35;;;;;;;;;;;16.60;99.90;;;;;;5082422;28;19924;-54
2022/09/03 06:31:04;;;;;;;;;;;16.60;99.90;;;;;;5069157;28;19925;-55
2022/09/03 06:33:33;;;;;;;;;;;16.60;99.90;;;;;;5087445;28;19924;-57
2022/09/03 06:36:01;;;;;;;;;;;16.60;99.90;;;;;;5068875;28;19947;-57
2022/09/03 06:38:35;;;;;;;;;;;16.70;99.90;;;;;;5090936;28;19931;-56
2022/09/03 06:41:04;;;;;;;;;;;16.80;99.90;;;;;;5074733;28;19924;-54
2022/09/03 06:43:32;;;;;;;;;;;16.70;99.90;;;;;;5084717;28;19924;-54
2022/09/03 06:46:01;;;;;;;;;;;16.80;99.90;;;;;;5084788;28;19925;-54
2022/09/03 06:48:30;;;;;;;;;;;16.80;99.90;;;;;;5079598;28;19956;-57
2022/09/03 06:51:01;;;;;;;;;;;16.90;99.90;;;;;;5067936;28;20379;-56
2022/09/03 06:53:30;;;;;;;;;;;16.90;99.90;;;;;;5080562;28;19935;-56
2022/09/03 06:56:03;;;;;;;;;;;17.00;99.90;;;;;;5086784;28;19928;-57
2022/09/03 06:58:31;;;;;;;;;;;17.10;99.90;;;;;;5083742;28;20259;-57
2022/09/03 07:01:03;;;;;;;;;;;17.10;99.90;;;;;;5082759;28;19935;-55
2022/09/03 07:03:30;;;;;;;;;;;17.20;99.90;;;;;;5076104;28;20307;-57
2022/09/03 07:06:01;;;;;;;;;;;17.20;99.90;;;;;;5065439;28;19925;-57
2022/09/03 07:08:31;;;;;;;;;;;17.30;99.90;;;;;;5069262;28;19936;-57
2022/09/03 07:11:02;;;;;;;;;;;17.30;99.90;;;;;;5075301;28;19963;-55
2022/09/03 07:13:31;;;;;;;;;;;17.40;99.90;;;;;;5083776;28;19951;-56
2022/09/03 07:16:04;;;;;;;;;;;17.40;99.90;;;;;;5072640;28;19931;-57
2022/09/03 07:18:32;;;;;;;;;;;17.50;99.90;;;;;;5083714;28;19939;-54
2022/09/03 07:21:00;;;;;;;;;;;17.50;99.90;;;;;;5069154;28;20508;-54
2022/09/03 07:23:28;;;;;;;;;;;17.50;99.90;;;;;;5083811;28;19927;-54
2022/09/03 07:25:57;;;;;;;;;;;17.60;99.90;;;;;;5088837;28;19924;-54
2022/09/03 07:28:25;;;;;;;;;;;17.70;99.90;;;;;;5091530;28;20402;-56
2022/09/03 07:30:53;;;;;;;;;;;17.70;99.90;;;;;;5068402;28;20305;-56
2022/09/03 07:33:21;;;;;;;;;;;17.80;99.90;;;;;;5081620;28;19930;-54
2022/09/03 07:35:48;;;;;;;;;;;17.90;99.90;;;;;;5085382;28;19928;-57
2022/09/03 07:38:18;;;;;;;;;;;17.90;99.90;;;;;;5088488;28;19924;-57
2022/09/03 07:40:46;;;;;;;;;;;17.90;99.90;;;;;;5088483;28;19931;-55
2022/09/03 07:43:14;;;;;;;;;;;17.90;99.90;;;;;;5079166;28;19924;-55
2022/09/03 07:45:44;;;;;;;;;;;18.00;99.90;;;;;;5067911;28;19932;-54
2022/09/03 07:48:12;;;;;;;;;;;18.00;99.90;;;;;;5082652;28;19926;-56
2022/09/03 07:50:39;;;;;;;;;;;18.00;99.90;;;;;;5071136;28;19932;-54
2022/09/03 07:53:07;;;;;;;;;;;18.00;99.90;;;;;;5081739;28;19924;-55
2022/09/03 07:55:35;;;;;;;;;;;18.00;99.90;;;;;;5100993;28;19928;-54
2022/09/03 07:58:02;;;;;;;;;;;18.10;99.90;;;;;;5081913;28;20384;-55
2022/09/03 08:00:32;;;;;;;;;;;18.10;99.90;;;;;;5072417;28;20295;-55
2022/09/03 08:03:04;;;;;;;;;;;18.10;99.90;;;;;;5077597;28;19928;-55
2022/09/03 08:05:34;;;;;;;;;;;18.10;99.90;;;;;;5075621;28;20456;-57
2022/09/03 08:08:03;;;;;;;;;;;18.20;99.90;;;;;;5080017;28;20279;-57
2022/09/03 08:10:34;;;;;;;;;;;18.20;99.90;;;;;;5092306;28;20343;-58
2022/09/03 08:13:04;;;;;;;;;;;18.20;99.90;;;;;;5087394;28;19924;-57
2022/09/03 08:15:33;;;;;;;;;;;18.30;99.90;;;;;;5091336;28;20657;-57
2022/09/03 08:18:00;;;;;;;;;;;18.30;99.90;;;;;;5096753;28;20387;-59
2022/09/03 08:20:32;;;;;;;;;;;18.40;99.90;;;;;;5086396;28;20240;-59
2022/09/03 08:23:01;;;;;;;;;;;18.50;99.90;;;;;;5100379;28;20501;-59
2022/09/03 08:25:30;;;;;;;;;;;18.50;99.90;;;;;;5102859;28;19924;-60
2022/09/03 08:27:57;;;;;;;;;;;18.60;99.90;;;;;;5088125;28;19931;-57
2022/09/03 08:30:26;;;;;;;;;;;18.60;99.90;;;;;;5092136;28;19947;-57
2022/09/03 08:32:54;;;;;;;;;;;18.60;99.90;;;;;;5086583;28;19924;-56
2022/09/03 08:35:21;;;;;;;;;;;18.70;99.90;;;;;;5090939;28;19931;-58
2022/09/03 08:37:50;;;;;;;;;;;18.70;99.90;;;;;;5073793;28;20278;-56
2022/09/03 08:40:23;;;;;;;;;;;18.70;99.90;;;;;;5091998;28;19935;-55
2022/09/03 08:43:11;;;;;;;;;;;18.80;99.90;;;;;;5078830;28;19939;-57
2022/09/03 08:45:38;;;;;;;;;;;18.90;99.90;;;;;;5087039;28;19925;-57
2022/09/03 08:48:08;;;;;;;;;;;18.90;99.90;;;;;;5091451;28;19924;-57
2022/09/03 08:50:44;;;;;;;;;;;19.00;99.90;;;;;;5085037;28;20425;-57
2022/09/03 08:53:11;;;;;;;;;;;19.10;99.90;;;;;;5087276;28;20295;-57
2022/09/03 08:55:52;;;;;;;;;;;19.20;99.90;;;;;;5110671;28;19924;-58
2022/09/03 08:58:21;;;;;;;;;;;19.30;99.90;;;;;;5100029;28;20251;-58
2022/09/03 09:01:12;;;;;;;;;;;19.30;99.90;;;;;;5091466;28;19924;-58
2022/09/03 09:03:52;;;;;;;;;;;19.40;99.90;;;;;;5082461;28;20151;-56
2022/09/03 09:06:24;;;;;;;;;;;19.40;99.90;;;;;;5070322;28;20410;-58
2022/09/03 09:08:55;;;;;;;;;;;19.40;99.90;;;;;;5080307;28;19947;-58
2022/09/03 09:11:33;;;;;;;;;;;19.50;99.90;;;;;;5088995;28;19932;-57
2022/09/03 09:14:27;;;;;;;;;;;19.60;99.90;;;;;;5104916;28;19935;-57
2022/09/03 09:17:03;;;;;;;;;;;19.60;99.90;;;;;;5079587;28;19924;-56
2022/09/03 09:19:37;;;;;;;;;;;19.70;99.90;;;;;;5072940;28;19950;-55
2022/09/03 09:22:11;;;;;;;;;;;19.80;99.90;;;;;;5071734;28;19924;-55
2022/09/03 09:24:44;;;;;;;;;;;20.00;99.90;;;;;;5074315;28;19932;-57
2022/09/03 09:27:15;;;;;;;;;;;20.10;99.90;;;;;;5072549;28;20407;-56
2022/09/03 09:29:47;;;;;;;;;;;20.20;99.90;;;;;;5073489;28;19931;-57
2022/09/03 09:32:16;;;;;;;;;;;20.40;99.90;;;;;;5081081;28;19955;-57
2022/09/03 09:34:44;;;;;;;;;;;20.50;99.90;;;;;;5070887;28;19928;-57
2022/09/03 09:37:19;;;;;;;;;;;20.50;99.90;;;;;;5071716;28;19924;-57
2022/09/03 09:39:54;;;;;;;;;;;20.60;99.90;;;;;;5083726;28;19931;-57
2022/09/03 09:42:22;;;;;;;;;;;20.50;99.90;;;;;;5076545;28;19928;-57
2022/09/03 09:44:49;;;;;;;;;;;20.60;99.90;;;;;;5099712;28;19928;-57
2022/09/03 09:47:33;;;;;;;;;;;20.60;99.90;;;;;;5068478;28;19924;-56
2022/09/03 09:50:01;;;;;;;;;;;20.60;99.90;;;;;;5074037;28;19946;-55
2022/09/03 09:52:30;;;;;;;;;;;20.60;99.90;;;;;;5076022;28;19931;-55
2022/09/03 09:55:06;;;;;;;;;;;20.60;99.90;;;;;;5095876;28;20489;-55
2022/09/03 09:57:34;;;;;;;;;;;20.70;99.90;;;;;;5071937;28;19924;-56
2022/09/03 10:00:07;;;;;;;;;;;20.80;99.90;;;;;;5065459;28;19936;-57
2022/09/03 10:02:50;;;;;;;;;;;20.80;99.90;;;;;;5073180;28;19924;-56
2022/09/03 10:05:23;;;;;;;;;;;20.80;99.90;;;;;;5069336;28;19924;-57
2022/09/03 10:08:13;;;;;;;;;;;20.90;99.90;;;;;;5072961;28;19928;-56
2022/09/03 10:10:43;;;;;;;;;;;21.00;99.90;;;;;;5073088;28;20321;-56
2022/09/03 10:13:37;;;;;;;;;;;21.10;99.90;;;;;;5068334;28;20006;-58
2022/09/03 10:16:16;;;;;;;;;;;21.10;99.90;;;;;;5063417;28;19924;-57
2022/09/03 10:18:47;;;;;;;;;;;21.30;99.90;;;;;;5079414;28;19924;-56
2022/09/03 10:21:33;;;;;;;;;;;21.50;99.90;;;;;;5086588;28;19935;-55
2022/09/03 10:24:04;;;;;;;;;;;21.60;99.90;;;;;;5102420;28;19935;-56
2022/09/03 10:26:35;;;;;;;;;;;21.70;99.90;;;;;;5107306;28;19928;-55
2022/09/03 10:29:04;;;;;;;;;;;21.70;99.90;;;;;;5106514;28;19923;-55
2022/09/03 10:31:35;;;;;;;;;;;21.70;99.90;;;;;;5083581;28;19928;-56
2022/09/03 10:34:03;;;;;;;;;;;21.60;99.90;;;;;;5083159;28;19924;-57
2022/09/03 10:36:38;;;;;;;;;;;21.60;99.90;;;;;;5086239;28;19928;-57
2022/09/03 10:39:35;;;;;;;;;;;21.60;99.90;;;;;;5100444;28;20116;-57
2022/09/03 10:42:34;;;;;;;;;;;21.50;99.90;;;;;;5047963;28;19928;-60
2022/09/03 10:45:18;;;;;;;;;;;21.60;99.90;;;;;;5066503;28;19929;-57
2022/09/03 10:48:05;;;;;;;;;;;21.60;99.90;;;;;;5076127;28;19947;-57
2022/09/03 10:50:47;;;;;;;;;;;21.70;99.90;;;;;;5106436;28;19923;-58
2022/09/03 10:53:27;;;;;;;;;;;21.80;99.90;;;;;;5096839;28;20472;-57
2022/09/03 10:56:04;;;;;;;;;;;21.80;99.90;;;;;;5105953;28;20367;-56
2022/09/03 10:58:51;;;;;;;;;;;21.80;99.60;;;;;;5084054;28;19929;-57
2022/09/03 11:01:34;;;;;;;;;;;21.70;99.40;;;;;;5065800;28;20300;-57
2022/09/03 11:04:18;;;;;;;;;;;21.70;99.60;;;;;;5080754;28;19931;-57
2022/09/03 11:06:55;;;;;;;;;;;21.70;99.60;;;;;;5083988;28;19931;-57
2022/09/03 11:09:28;;;;;;;;;;;21.60;99.90;;;;;;5102769;28;20457;-57
2022/09/03 11:11:58;;;;;;;;;;;21.60;99.90;;;;;;5104787;28;20386;-59
2022/09/03 11:14:32;;;;;;;;;;;21.50;99.70;;;;;;5103443;28;19931;-58
2022/09/03 11:17:11;;;;;;;;;;;21.50;99.60;;;;;;5064092;28;20384;-58
2022/09/03 11:19:45;;;;;;;;;;;21.50;99.70;;;;;;5065872;28;19936;-57
2022/09/03 11:22:17;;;;;;;;;;;21.40;99.90;;;;;;5065951;28;19924;-57
2022/09/03 11:24:51;;;;;;;;;;;21.40;99.90;;;;;;5101611;28;20264;-56
2022/09/03 11:27:31;;;;;;;;;;;21.50;99.90;;;;;;5104821;28;20216;-56
2022/09/03 11:30:05;;;;;;;;;;;21.50;99.90;;;;;;5082939;28;19935;-55
2022/09/03 11:32:33;;;;;;;;;;;21.60;99.40;;;;;;5087023;28;20330;-56
2022/09/03 11:35:00;;;;;;;;;;;21.70;99.60;;;;;;5088410;28;19931;-55
2022/09/03 11:37:29;;;;;;;;;;;21.90;99.10;;;;;;5090841;28;19947;-58
2022/09/03 11:40:12;;;;;;;;;;;22.00;98.90;;;;;;5109042;28;19924;-56
2022/09/03 11:42:41;;;;;;;;;;;22.10;98.80;;;;;;5107002;28;20505;-56
2022/09/03 11:45:34;;;;;;;;;;;22.10;98.50;;;;;;5101886;28;19925;-55
2022/09/03 11:48:15;;;;;;;;;;;22.10;98.50;;;;;;5082657;28;19935;-56
2022/09/03 11:50:51;;;;;;;;;;;22.20;98.40;;;;;;5108970;28;19924;-56
2022/09/03 11:53:18;;;;;;;;;;;22.20;98.60;;;;;;5100889;28;19938;-55
2022/09/03 11:55:46;;;;;;;;;;;22.40;98.70;;;;;;5108919;28;19923;-55
2022/09/03 11:58:33;;;;;;;;;;;22.50;98.70;;;;;;5097829;28;19925;-56
2022/09/03 12:01:02;;;;;;;;;;;22.60;97.90;;;;;;5075709;28;20291;-55
2022/09/03 12:03:39;;;;;;;;;;;22.60;97.80;;;;;;5077228;28;20291;-55
2022/09/03 12:06:09;;;;;;;;;;;22.50;97.90;;;;;;5085181;28;20303;-55
2022/09/03 12:08:45;;;;;;;;;;;22.40;98.00;;;;;;5085188;28;19931;-55
2022/09/03 12:11:27;;;;;;;;;;;22.30;98.10;;;;;;5084934;28;19924;-58
2022/09/03 12:14:03;;;;;;;;;;;22.20;98.20;;;;;;5098284;28;20516;-58
2022/09/03 12:16:39;;;;;;;;;;;22.10;98.50;;;;;;5086772;28;19935;-57
2022/09/03 12:19:10;;;;;;;;;;;22.00;98.60;;;;;;5096921;28;19924;-55
2022/09/03 12:21:39;;;;;;;;;;;22.00;98.60;;;;;;5105734;28;19935;-55
2022/09/03 12:24:10;;;;;;;;;;;21.90;98.40;;;;;;5098612;28;20747;-57
2022/09/03 12:26:40;;;;;;;;;;;21.80;98.60;;;;;;5096893;28;19930;-55
2022/09/03 12:29:19;;;;;;;;;;;21.70;99.00;;;;;;5101484;28;19924;-54
2022/09/03 12:31:49;;;;;;;;;;;21.80;99.00;;;;;;5074882;28;19924;-57
2022/09/03 12:34:18;;;;;;;;;;;21.70;98.90;;;;;;5084302;28;19935;-56
2022/09/03 12:36:48;;;;;;;;;;;21.70;98.90;;;;;;5084964;28;20182;-56
2022/09/03 12:39:17;;;;;;;;;;;21.70;99.10;;;;;;5102085;28;19927;-57
2022/09/03 12:41:54;;;;;;;;;;;21.70;99.30;;;;;;5106544;28;19931;-57
2022/09/03 12:44:36;;;;;;;;;;;21.70;99.40;;;;;;5088264;28;20111;-55
2022/09/03 12:47:10;;;;;;;;;;;21.70;99.50;;;;;;5072510;28;19928;-55
2022/09/03 12:50:03;;;;;;;;;;;21.70;99.40;;;;;;5083658;28;20283;-56
2022/09/03 12:52:36;;;;;;;;;;;21.80;99.60;;;;;;5071891;28;20370;-56
2022/09/03 12:55:14;;;;;;;;;;;21.90;99.60;;;;;;5105217;28;19924;-55
2022/09/03 12:57:44;;;;;;;;;;;22.00;99.30;;;;;;5103331;28;20295;-55
2022/09/03 13:00:13;;;;;;;;;;;22.00;99.20;;;;;;5088344;28;19939;-55
2022/09/03 13:02:48;;;;;;;;;;;22.00;98.80;;;;;;5078455;28;20417;-57
2022/09/03 13:05:17;;;;;;;;;;;22.00;99.10;;;;;;5108425;28;19928;-57
2022/09/03 13:07:46;;;;;;;;;;;22.00;99.30;;;;;;5094027;28;19924;-57
2022/09/03 13:10:28;;;;;;;;;;;22.00;99.30;;;;;;5087077;28;20291;-57
2022/09/03 13:13:00;;;;;;;;;;;22.00;99.20;;;;;;5086323;28;19931;-57
2022/09/03 13:15:28;;;;;;;;;;;22.00;99.20;;;;;;5085981;28;19924;-57
2022/09/03 13:17:55;;;;;;;;;;;22.00;99.10;;;;;;5073541;28;19928;-57
2022/09/03 13:20:28;;;;;;;;;;;22.00;99.00;;;;;;5087739;28;20214;-57
2022/09/03 13:23:06;;;;;;;;;;;22.00;98.90;;;;;;5087605;28;19935;-56
2022/09/03 13:25:52;;;;;;;;;;;21.90;98.70;;;;;;5106512;28;19931;-57
2022/09/03 13:28:38;;;;;;;;;;;21.90;99.00;;;;;;5098078;28;19931;-57
2022/09/03 13:31:15;;;;;;;;;;;21.90;98.90;;;;;;5083664;28;20280;-57
2022/09/03 13:33:46;;;;;;;;;;;21.90;98.90;;;;;;5093586;28;19931;-57
2022/09/03 13:36:39;;;;;;;;;;;22.00;98.80;;;;;;5107774;28;19924;-58
2022/09/03 13:39:18;;;;;;;;;;;22.00;98.70;;;;;;5090325;28;20430;-57
2022/09/03 13:42:12;;;;;;;;;;;22.10;98.90;;;;;;5087367;28;19924;-57
2022/09/03 13:44:45;;;;;;;;;;;22.20;98.90;;;;;;5086121;28;19924;-58
2022/09/03 13:47:13;;;;;;;;;;;22.40;98.80;;;;;;5073920;28;20303;-57
2022/09/03 13:52:41;;;;;;;;;;;22.80;98.30;;;;;;5069565;28;20379;-56
2022/09/03 13:55:18;;;;;;;;;;;23.00;98.00;;;;;;5106104;28;20417;-56
2022/09/03 13:57:46;;;;;;;;;;;23.10;97.40;;;;;;5103481;28;19924;-56
2022/09/03 14:00:23;;;;;;;;;;;23.20;97.10;;;;;;5087007;28;19924;-57
2022/09/03 14:02:57;;;;;;;;;;;23.20;96.70;;;;;;5076012;28;20170;-56
2022/09/03 14:05:27;;;;;;;;;;;23.20;97.00;;;;;;5087168;28;19924;-56
2022/09/03 14:07:55;;;;;;;;;;;23.30;96.80;;;;;;5085463;28;19928;-56
2022/09/03 14:10:23;;;;;;;;;;;23.30;96.90;;;;;;5086455;28;19931;-56
2022/09/03 14:13:09;;;;;;;;;;;23.60;96.60;;;;;;5064767;28;19924;-57
2022/09/03 14:15:42;;;;;;;;;;;23.80;96.10;;;;;;5066619;28;19928;-57
2022/09/03 14:18:34;;;;;;;;;;;24.00;96.10;;;;;;5082733;28;20379;-56
2022/09/03 14:21:03;;;;;;;;;;;23.90;95.50;;;;;;5106763;28;19935;-56
2022/09/03 14:23:54;;;;;;;;;;;23.70;95.60;;;;;;5099309;28;19931;-55
2022/09/03 14:26:32;;;;;;;;;;;23.60;96.00;;;;;;5103920;28;20282;-55
2022/09/03 14:29:10;;;;;;;;;;;23.50;96.20;;;;;;5090225;28;19931;-55
2022/09/03 14:31:57;;;;;;;;;;;23.40;96.40;;;;;;5079521;28;19925;-56
2022/09/03 14:34:34;;;;;;;;;;;23.30;96.20;;;;;;5085274;28;19928;-57
2022/09/03 14:37:20;;;;;;;;;;;23.30;96.30;;;;;;5086621;28;19928;-56
2022/09/03 14:39:53;;;;;;;;;;;23.10;96.30;;;;;;5065660;28;19924;-55
2022/09/03 14:42:23;;;;;;;;;;;23.00;96.40;;;;;;5069218;28;19925;-55
2022/09/03 14:44:57;;;;;;;;;;;22.80;96.50;;;;;;5106274;28;19931;-55
2022/09/03 14:47:24;;;;;;;;;;;22.60;96.80;;;;;;5084957;28;19925;-57
2022/09/03 14:50:01;;;;;;;;;;;22.50;96.90;;;;;;5084731;28;19931;-57